sensor_id;sensor_type;location;lat;lon;timestamp;P1;durP1;ratioP1;P2;durP2;ratioP2
74495;SDS011;62979;55.720;37.606;2022-10-19T00:01:34;1.55;;;0.47;;
74495;SDS011;62979;55.720;37.606;2022-10-19T00:04:01;0.43;;;0.43;;
74495;SDS011;62979;55.720;37.606;2022-10-19T00:06:30;0.47;;;0.40;;
74495;SDS011;62979;55.720;37.606;2022-10-19T00:09:00;1.67;;;0.05;;
74495;SDS011;62979;55.720;37.606;2022-10-19T00:11:31;0.45;;;0.28;;
74495;SDS011;62979;55.720;37.606;2022-10-19T00:14:02;0.30;;;0.30;;
74495;SDS011;62979;55.720;37.606;2022-10-19T00:16:32;1.05;;;0.17;;
74495;SDS011;62979;55.720;37.606;2022-10-19T00:19:03;0.57;;;0.25;;
74495;SDS011;62979;55.720;37.606;2022-10-19T00:21:35;0.22;;;0.22;;
74495;SDS011;62979;55.720;37.606;2022-10-19T00:24:03;0.38;;;0.38;;
74495;SDS011;62979;55.720;37.606;2022-10-19T00:26:33;0.55;;;0.20;;
74495;SDS011;62979;55.720;37.606;2022-10-19T00:29:00;0.13;;;0.05;;
74495;SDS011;62979;55.720;37.606;2022-10-19T00:31:27;0.52;;;0.38;;
74495;SDS011;62979;55.720;37.606;2022-10-19T00:33:55;0.43;;;0.20;;
74495;SDS011;62979;55.720;37.606;2022-10-19T00:36:24;0.28;;;0.28;;
74495;SDS011;62979;55.720;37.606;2022-10-19T00:38:55;0.45;;;0.32;;
74495;SDS011;62979;55.720;37.606;2022-10-19T00:41:25;0.50;;;0.22;;
74495;SDS011;62979;55.720;37.606;2022-10-19T00:43:57;0.20;;;0.05;;
74495;SDS011;62979;55.720;37.606;2022-10-19T00:46:27;0.15;;;0.10;;
74495;SDS011;62979;55.720;37.606;2022-10-19T00:48:57;0.45;;;0.45;;
74495;SDS011;62979;55.720;37.606;2022-10-19T00:51:27;0.40;;;0.40;;
74495;SDS011;62979;55.720;37.606;2022-10-19T00:53:57;1.35;;;0.28;;
74495;SDS011;62979;55.720;37.606;2022-10-19T00:56:27;0.55;;;0.32;;
74495;SDS011;62979;55.720;37.606;2022-10-19T00:58:54;0.40;;;0.32;;
74495;SDS011;62979;55.720;37.606;2022-10-19T01:01:23;0.47;;;0.47;;
74495;SDS011;62979;55.720;37.606;2022-10-19T01:03:54;0.38;;;0.35;;
74495;SDS011;62979;55.720;37.606;2022-10-19T01:06:21;0.70;;;0.13;;
74495;SDS011;62979;55.720;37.606;2022-10-19T01:08:49;0.32;;;0.08;;
74495;SDS011;62979;55.720;37.606;2022-10-19T01:11:19;0.63;;;0.00;;
74495;SDS011;62979;55.720;37.606;2022-10-19T01:14:02;0.45;;;0.43;;
74495;SDS011;62979;55.720;37.606;2022-10-19T01:16:49;0.47;;;0.22;;
74495;SDS011;62979;55.720;37.606;2022-10-19T01:19:43;0.57;;;0.35;;
74495;SDS011;62979;55.720;37.606;2022-10-19T01:22:44;0.45;;;0.45;;
74495;SDS011;62979;55.720;37.606;2022-10-19T01:25:32;0.20;;;0.20;;
74495;SDS011;62979;55.720;37.606;2022-10-19T01:28:23;1.45;;;0.35;;
74495;SDS011;62979;55.720;37.606;2022-10-19T01:31:08;1.33;;;0.25;;
74495;SDS011;62979;55.720;37.606;2022-10-19T01:33:49;0.68;;;0.20;;
74495;SDS011;62979;55.720;37.606;2022-10-19T01:36:29;1.58;;;0.32;;
74495;SDS011;62979;55.720;37.606;2022-10-19T01:39:08;2.53;;;0.17;;
74495;SDS011;62979;55.720;37.606;2022-10-19T01:41:45;1.45;;;0.50;;
74495;SDS011;62979;55.720;37.606;2022-10-19T01:44:21;0.95;;;0.30;;
74495;SDS011;62979;55.720;37.606;2022-10-19T01:46:58;0.98;;;0.22;;
74495;SDS011;62979;55.720;37.606;2022-10-19T01:49:31;0.45;;;0.30;;
74495;SDS011;62979;55.720;37.606;2022-10-19T01:52:07;1.20;;;0.35;;
74495;SDS011;62979;55.720;37.606;2022-10-19T01:54:41;0.80;;;0.50;;
74495;SDS011;62979;55.720;37.606;2022-10-19T01:57:13;0.40;;;0.20;;
74495;SDS011;62979;55.720;37.606;2022-10-19T01:59:48;0.60;;;0.35;;
74495;SDS011;62979;55.720;37.606;2022-10-19T02:02:20;0.40;;;0.22;;
74495;SDS011;62979;55.720;37.606;2022-10-19T02:04:51;0.93;;;0.32;;
74495;SDS011;62979;55.720;37.606;2022-10-19T02:07:22;0.90;;;0.32;;
74495;SDS011;62979;55.720;37.606;2022-10-19T02:09:51;0.32;;;0.10;;
74495;SDS011;62979;55.720;37.606;2022-10-19T02:12:18;0.93;;;0.25;;
74495;SDS011;62979;55.720;37.606;2022-10-19T02:14:48;0.03;;;0.03;;
74495;SDS011;62979;55.720;37.606;2022-10-19T02:17:24;2.45;;;0.22;;
74495;SDS011;62979;55.720;37.606;2022-10-19T02:19:57;0.57;;;0.32;;
74495;SDS011;62979;55.720;37.606;2022-10-19T02:22:26;0.95;;;0.38;;
74495;SDS011;62979;55.720;37.606;2022-10-19T02:24:53;0.38;;;0.28;;
74495;SDS011;62979;55.720;37.606;2022-10-19T02:27:20;0.70;;;0.70;;
74495;SDS011;62979;55.720;37.606;2022-10-19T02:29:48;0.57;;;0.57;;
74495;SDS011;62979;55.720;37.606;2022-10-19T02:32:15;0.73;;;0.10;;
74495;SDS011;62979;55.720;37.606;2022-10-19T02:34:44;0.60;;;0.40;;
74495;SDS011;62979;55.720;37.606;2022-10-19T02:37:11;0.35;;;0.13;;
74495;SDS011;62979;55.720;37.606;2022-10-19T02:39:38;0.20;;;0.20;;
74495;SDS011;62979;55.720;37.606;2022-10-19T02:42:06;0.20;;;0.10;;
74495;SDS011;62979;55.720;37.606;2022-10-19T02:44:40;0.47;;;0.28;;
74495;SDS011;62979;55.720;37.606;2022-10-19T02:47:13;0.30;;;0.22;;
74495;SDS011;62979;55.720;37.606;2022-10-19T02:49:47;0.10;;;0.00;;
74495;SDS011;62979;55.720;37.606;2022-10-19T02:52:15;0.63;;;0.55;;
74495;SDS011;62979;55.720;37.606;2022-10-19T02:54:43;1.27;;;0.50;;
74495;SDS011;62979;55.720;37.606;2022-10-19T02:57:14;0.50;;;0.22;;
74495;SDS011;62979;55.720;37.606;2022-10-19T02:59:43;0.43;;;0.43;;
74495;SDS011;62979;55.720;37.606;2022-10-19T03:02:11;0.85;;;0.57;;
74495;SDS011;62979;55.720;37.606;2022-10-19T03:04:38;0.50;;;0.50;;
74495;SDS011;62979;55.720;37.606;2022-10-19T03:07:08;2.92;;;0.38;;
74495;SDS011;62979;55.720;37.606;2022-10-19T03:09:37;0.85;;;0.85;;
74495;SDS011;62979;55.720;37.606;2022-10-19T03:12:04;0.38;;;0.15;;
74495;SDS011;62979;55.720;37.606;2022-10-19T03:14:31;1.30;;;0.82;;
74495;SDS011;62979;55.720;37.606;2022-10-19T03:16:58;0.88;;;0.68;;
74495;SDS011;62979;55.720;37.606;2022-10-19T03:19:25;0.80;;;0.55;;
74495;SDS011;62979;55.720;37.606;2022-10-19T03:21:52;0.88;;;0.63;;
74495;SDS011;62979;55.720;37.606;2022-10-19T03:24:20;0.40;;;0.28;;
74495;SDS011;62979;55.720;37.606;2022-10-19T03:26:48;1.02;;;0.10;;
74495;SDS011;62979;55.720;37.606;2022-10-19T03:29:15;2.17;;;0.38;;
74495;SDS011;62979;55.720;37.606;2022-10-19T03:31:42;0.93;;;0.55;;
74495;SDS011;62979;55.720;37.606;2022-10-19T03:34:09;0.38;;;0.32;;
74495;SDS011;62979;55.720;37.606;2022-10-19T03:36:37;0.95;;;0.40;;
74495;SDS011;62979;55.720;37.606;2022-10-19T03:39:06;2.53;;;0.63;;
74495;SDS011;62979;55.720;37.606;2022-10-19T03:41:39;1.45;;;0.40;;
74495;SDS011;62979;55.720;37.606;2022-10-19T03:44:07;3.65;;;0.65;;
74495;SDS011;62979;55.720;37.606;2022-10-19T03:46:36;2.28;;;0.77;;
74495;SDS011;62979;55.720;37.606;2022-10-19T03:51:31;2.25;;;1.23;;
74495;SDS011;62979;55.720;37.606;2022-10-19T03:54:00;1.15;;;0.65;;
74495;SDS011;62979;55.720;37.606;2022-10-19T03:56:33;2.25;;;0.52;;
74495;SDS011;62979;55.720;37.606;2022-10-19T03:59:03;1.52;;;0.88;;
74495;SDS011;62979;55.720;37.606;2022-10-19T04:01:32;1.38;;;1.13;;
74495;SDS011;62979;55.720;37.606;2022-10-19T04:04:03;3.33;;;2.28;;
74495;SDS011;62979;55.720;37.606;2022-10-19T04:06:35;2.90;;;2.15;;
74495;SDS011;62979;55.720;37.606;2022-10-19T04:09:05;2.90;;;1.95;;
74495;SDS011;62979;55.720;37.606;2022-10-19T04:11:37;6.82;;;2.28;;
74495;SDS011;62979;55.720;37.606;2022-10-19T04:14:05;4.55;;;2.22;;
74495;SDS011;62979;55.720;37.606;2022-10-19T04:16:33;3.13;;;1.48;;
74495;SDS011;62979;55.720;37.606;2022-10-19T04:19:00;5.88;;;1.88;;
74495;SDS011;62979;55.720;37.606;2022-10-19T04:21:28;2.33;;;1.50;;
74495;SDS011;62979;55.720;37.606;2022-10-19T04:23:59;4.32;;;1.75;;
74495;SDS011;62979;55.720;37.606;2022-10-19T04:26:29;6.55;;;2.28;;
74495;SDS011;62979;55.720;37.606;2022-10-19T04:28:57;5.30;;;2.97;;
74495;SDS011;62979;55.720;37.606;2022-10-19T04:31:26;10.25;;;2.72;;
74495;SDS011;62979;55.720;37.606;2022-10-19T04:33:54;4.40;;;2.75;;
74495;SDS011;62979;55.720;37.606;2022-10-19T04:36:22;6.07;;;3.20;;
74495;SDS011;62979;55.720;37.606;2022-10-19T04:38:49;4.95;;;3.28;;
74495;SDS011;62979;55.720;37.606;2022-10-19T04:41:18;8.55;;;3.03;;
74495;SDS011;62979;55.720;37.606;2022-10-19T04:43:48;6.40;;;3.13;;
74495;SDS011;62979;55.720;37.606;2022-10-19T04:46:20;4.43;;;2.30;;
74495;SDS011;62979;55.720;37.606;2022-10-19T04:48:49;6.05;;;2.05;;
74495;SDS011;62979;55.720;37.606;2022-10-19T04:51:18;5.95;;;2.97;;
74495;SDS011;62979;55.720;37.606;2022-10-19T04:53:46;4.53;;;3.03;;
74495;SDS011;62979;55.720;37.606;2022-10-19T04:56:14;6.15;;;3.42;;
74495;SDS011;62979;55.720;37.606;2022-10-19T04:58:44;9.73;;;3.85;;
74495;SDS011;62979;55.720;37.606;2022-10-19T05:01:15;4.38;;;3.85;;
74495;SDS011;62979;55.720;37.606;2022-10-19T05:03:46;5.35;;;3.25;;
74495;SDS011;62979;55.720;37.606;2022-10-19T05:06:18;7.65;;;4.75;;
74495;SDS011;62979;55.720;37.606;2022-10-19T05:08:46;6.25;;;5.43;;
74495;SDS011;62979;55.720;37.606;2022-10-19T05:11:14;7.72;;;4.93;;
74495;SDS011;62979;55.720;37.606;2022-10-19T05:13:43;7.03;;;4.47;;
74495;SDS011;62979;55.720;37.606;2022-10-19T05:16:11;6.35;;;4.70;;
74495;SDS011;62979;55.720;37.606;2022-10-19T05:18:40;9.57;;;3.83;;
74495;SDS011;62979;55.720;37.606;2022-10-19T05:21:09;4.38;;;3.33;;
74495;SDS011;62979;55.720;37.606;2022-10-19T05:23:39;7.35;;;3.85;;
74495;SDS011;62979;55.720;37.606;2022-10-19T05:26:08;5.57;;;3.78;;
74495;SDS011;62979;55.720;37.606;2022-10-19T05:28:37;7.57;;;3.80;;
74495;SDS011;62979;55.720;37.606;2022-10-19T05:31:06;8.27;;;3.55;;
74495;SDS011;62979;55.720;37.606;2022-10-19T05:33:36;4.88;;;3.35;;
74495;SDS011;62979;55.720;37.606;2022-10-19T05:36:15;7.45;;;3.78;;
74495;SDS011;62979;55.720;37.606;2022-10-19T05:38:45;7.00;;;3.75;;
74495;SDS011;62979;55.720;37.606;2022-10-19T05:41:16;8.90;;;4.40;;
74495;SDS011;62979;55.720;37.606;2022-10-19T05:46:12;12.88;;;4.22;;
74495;SDS011;62979;55.720;37.606;2022-10-19T05:48:41;9.38;;;5.00;;
74495;SDS011;62979;55.720;37.606;2022-10-19T05:51:10;10.50;;;4.95;;
74495;SDS011;62979;55.720;37.606;2022-10-19T05:53:41;6.72;;;4.88;;
74495;SDS011;62979;55.720;37.606;2022-10-19T05:56:10;9.13;;;5.78;;
74495;SDS011;62979;55.720;37.606;2022-10-19T05:58:42;7.63;;;5.20;;
74495;SDS011;62979;55.720;37.606;2022-10-19T06:01:10;13.10;;;5.72;;
74495;SDS011;62979;55.720;37.606;2022-10-19T06:03:39;8.77;;;6.15;;
74495;SDS011;62979;55.720;37.606;2022-10-19T06:06:06;8.43;;;5.97;;
74495;SDS011;62979;55.720;37.606;2022-10-19T06:08:35;7.90;;;6.15;;
74495;SDS011;62979;55.720;37.606;2022-10-19T06:11:05;10.90;;;7.57;;
74495;SDS011;62979;55.720;37.606;2022-10-19T06:13:35;11.52;;;9.30;;
74495;SDS011;62979;55.720;37.606;2022-10-19T06:16:04;11.75;;;8.52;;
74495;SDS011;62979;55.720;37.606;2022-10-19T06:18:32;12.05;;;10.07;;
74495;SDS011;62979;55.720;37.606;2022-10-19T06:21:00;13.40;;;9.73;;
74495;SDS011;62979;55.720;37.606;2022-10-19T06:23:29;14.65;;;9.88;;
74495;SDS011;62979;55.720;37.606;2022-10-19T06:25:56;15.10;;;9.75;;
74495;SDS011;62979;55.720;37.606;2022-10-19T06:28:25;14.27;;;9.60;;
74495;SDS011;62979;55.720;37.606;2022-10-19T06:30:52;15.20;;;9.93;;
74495;SDS011;62979;55.720;37.606;2022-10-19T06:33:19;11.10;;;8.63;;
74495;SDS011;62979;55.720;37.606;2022-10-19T06:35:46;15.73;;;9.30;;
74495;SDS011;62979;55.720;37.606;2022-10-19T06:38:13;15.07;;;9.18;;
74495;SDS011;62979;55.720;37.606;2022-10-19T06:40:40;13.57;;;8.85;;
74495;SDS011;62979;55.720;37.606;2022-10-19T06:43:07;13.00;;;8.95;;
74495;SDS011;62979;55.720;37.606;2022-10-19T06:45:37;12.57;;;8.30;;
74495;SDS011;62979;55.720;37.606;2022-10-19T06:48:04;15.48;;;7.53;;
74495;SDS011;62979;55.720;37.606;2022-10-19T06:50:32;11.43;;;7.60;;
74495;SDS011;62979;55.720;37.606;2022-10-19T06:52:59;11.05;;;7.55;;
74495;SDS011;62979;55.720;37.606;2022-10-19T06:55:26;10.63;;;6.80;;
74495;SDS011;62979;55.720;37.606;2022-10-19T06:57:53;9.35;;;6.55;;
74495;SDS011;62979;55.720;37.606;2022-10-19T07:00:20;13.50;;;6.35;;
74495;SDS011;62979;55.720;37.606;2022-10-19T07:02:49;8.05;;;5.55;;
74495;SDS011;62979;55.720;37.606;2022-10-19T07:05:16;7.03;;;4.88;;
74495;SDS011;62979;55.720;37.606;2022-10-19T07:07:43;9.18;;;6.00;;
74495;SDS011;62979;55.720;37.606;2022-10-19T07:10:10;7.00;;;4.93;;
74495;SDS011;62979;55.720;37.606;2022-10-19T07:12:37;10.00;;;4.85;;
74495;SDS011;62979;55.720;37.606;2022-10-19T07:15:05;9.25;;;5.55;;
74495;SDS011;62979;55.720;37.606;2022-10-19T07:17:33;7.22;;;4.82;;
74495;SDS011;62979;55.720;37.606;2022-10-19T07:20:01;10.45;;;5.15;;
74495;SDS011;62979;55.720;37.606;2022-10-19T07:22:28;10.18;;;5.22;;
74495;SDS011;62979;55.720;37.606;2022-10-19T07:24:55;8.15;;;5.03;;
74495;SDS011;62979;55.720;37.606;2022-10-19T07:27:22;9.93;;;5.40;;
74495;SDS011;62979;55.720;37.606;2022-10-19T07:29:51;8.82;;;5.75;;
74495;SDS011;62979;55.720;37.606;2022-10-19T07:32:18;13.50;;;6.00;;
74495;SDS011;62979;55.720;37.606;2022-10-19T07:34:45;9.48;;;6.07;;
74495;SDS011;62979;55.720;37.606;2022-10-19T07:37:14;8.05;;;5.88;;
74495;SDS011;62979;55.720;37.606;2022-10-19T07:39:41;12.70;;;6.40;;
74495;SDS011;62979;55.720;37.606;2022-10-19T07:42:08;8.65;;;6.25;;
74495;SDS011;62979;55.720;37.606;2022-10-19T07:44:35;13.93;;;7.50;;
74495;SDS011;62979;55.720;37.606;2022-10-19T07:47:02;13.38;;;8.30;;
74495;SDS011;62979;55.720;37.606;2022-10-19T07:49:30;13.95;;;8.38;;
74495;SDS011;62979;55.720;37.606;2022-10-19T07:51:57;13.27;;;7.38;;
74495;SDS011;62979;55.720;37.606;2022-10-19T07:54:25;14.05;;;7.18;;
74495;SDS011;62979;55.720;37.606;2022-10-19T07:56:53;11.43;;;7.60;;
74495;SDS011;62979;55.720;37.606;2022-10-19T07:59:20;10.82;;;7.10;;
74495;SDS011;62979;55.720;37.606;2022-10-19T08:01:47;9.65;;;6.88;;
74495;SDS011;62979;55.720;37.606;2022-10-19T08:04:15;9.82;;;5.68;;
74495;SDS011;62979;55.720;37.606;2022-10-19T08:06:43;10.27;;;6.68;;
74495;SDS011;62979;55.720;37.606;2022-10-19T08:09:10;11.30;;;6.20;;
74495;SDS011;62979;55.720;37.606;2022-10-19T08:11:38;8.98;;;6.10;;
74495;SDS011;62979;55.720;37.606;2022-10-19T08:14:05;9.65;;;5.93;;
74495;SDS011;62979;55.720;37.606;2022-10-19T08:16:33;11.27;;;6.05;;
74495;SDS011;62979;55.720;37.606;2022-10-19T08:19:05;10.32;;;6.18;;
74495;SDS011;62979;55.720;37.606;2022-10-19T08:21:36;9.48;;;6.97;;
74495;SDS011;62979;55.720;37.606;2022-10-19T08:24:05;11.40;;;6.60;;
74495;SDS011;62979;55.720;37.606;2022-10-19T08:26:34;15.38;;;6.53;;
74495;SDS011;62979;55.720;37.606;2022-10-19T08:29:05;11.60;;;6.82;;
74495;SDS011;62979;55.720;37.606;2022-10-19T08:31:35;6.93;;;5.45;;
74495;SDS011;62979;55.720;37.606;2022-10-19T08:34:02;10.65;;;6.07;;
74495;SDS011;62979;55.720;37.606;2022-10-19T08:36:30;8.88;;;5.55;;
74495;SDS011;62979;55.720;37.606;2022-10-19T08:38:59;8.00;;;4.78;;
74495;SDS011;62979;55.720;37.606;2022-10-19T08:41:28;10.20;;;5.55;;
74495;SDS011;62979;55.720;37.606;2022-10-19T08:47:16;8.90;;;6.25;;
74495;SDS011;62979;55.720;37.606;2022-10-19T08:50:00;11.07;;;5.97;;
74495;SDS011;62979;55.720;37.606;2022-10-19T08:52:29;10.15;;;6.90;;
74495;SDS011;62979;55.720;37.606;2022-10-19T08:55:01;10.73;;;5.55;;
74495;SDS011;62979;55.720;37.606;2022-10-19T08:57:37;17.20;;;6.35;;
74495;SDS011;62979;55.720;37.606;2022-10-19T09:00:19;9.70;;;6.18;;
74495;SDS011;62979;55.720;37.606;2022-10-19T09:03:02;14.77;;;6.38;;
74495;SDS011;62979;55.720;37.606;2022-10-19T09:05:43;10.57;;;6.10;;
74495;SDS011;62979;55.720;37.606;2022-10-19T09:08:17;10.15;;;7.07;;
74495;SDS011;62979;55.720;37.606;2022-10-19T09:10:47;13.75;;;7.40;;
74495;SDS011;62979;55.720;37.606;2022-10-19T09:13:20;11.43;;;6.68;;
74495;SDS011;62979;55.720;37.606;2022-10-19T09:16:03;8.90;;;5.57;;
74495;SDS011;62979;55.720;37.606;2022-10-19T09:18:32;6.95;;;6.03;;
74495;SDS011;62979;55.720;37.606;2022-10-19T09:21:01;7.03;;;5.07;;
74495;SDS011;62979;55.720;37.606;2022-10-19T09:23:37;7.50;;;5.35;;
74495;SDS011;62979;55.720;37.606;2022-10-19T09:26:12;11.10;;;5.00;;
74495;SDS011;62979;55.720;37.606;2022-10-19T09:28:44;6.50;;;4.68;;
74495;SDS011;62979;55.720;37.606;2022-10-19T09:31:21;12.20;;;6.25;;
74495;SDS011;62979;55.720;37.606;2022-10-19T09:33:56;8.93;;;5.57;;
74495;SDS011;62979;55.720;37.606;2022-10-19T09:36:30;9.55;;;6.15;;
74495;SDS011;62979;55.720;37.606;2022-10-19T09:39:05;9.50;;;5.57;;
74495;SDS011;62979;55.720;37.606;2022-10-19T09:41:36;11.98;;;5.28;;
74495;SDS011;62979;55.720;37.606;2022-10-19T09:44:12;14.10;;;6.40;;
74495;SDS011;62979;55.720;37.606;2022-10-19T09:46:42;18.35;;;6.20;;
74495;SDS011;62979;55.720;37.606;2022-10-19T09:49:17;9.07;;;6.55;;
74495;SDS011;62979;55.720;37.606;2022-10-19T09:54:23;7.28;;;5.25;;
74495;SDS011;62979;55.720;37.606;2022-10-19T09:56:58;8.77;;;6.30;;
74495;SDS011;62979;55.720;37.606;2022-10-19T09:59:27;8.05;;;5.30;;
74495;SDS011;62979;55.720;37.606;2022-10-19T10:02:02;9.52;;;5.72;;
74495;SDS011;62979;55.720;37.606;2022-10-19T10:04:40;7.85;;;5.50;;
74495;SDS011;62979;55.720;37.606;2022-10-19T10:07:13;9.52;;;6.20;;
74495;SDS011;62979;55.720;37.606;2022-10-19T10:09:43;9.07;;;5.35;;
74495;SDS011;62979;55.720;37.606;2022-10-19T10:12:12;9.32;;;5.68;;
74495;SDS011;62979;55.720;37.606;2022-10-19T10:14:41;7.90;;;5.45;;
74495;SDS011;62979;55.720;37.606;2022-10-19T10:17:13;5.78;;;3.47;;
74495;SDS011;62979;55.720;37.606;2022-10-19T10:19:51;7.20;;;2.92;;
74495;SDS011;62979;55.720;37.606;2022-10-19T10:22:41;5.60;;;4.00;;
74495;SDS011;62979;55.720;37.606;2022-10-19T10:25:23;8.05;;;4.82;;
74495;SDS011;62979;55.720;37.606;2022-10-19T10:27:58;7.65;;;4.30;;
74495;SDS011;62979;55.720;37.606;2022-10-19T10:30:29;5.43;;;3.63;;
74495;SDS011;62979;55.720;37.606;2022-10-19T10:33:03;5.45;;;3.35;;
74495;SDS011;62979;55.720;37.606;2022-10-19T10:35:32;5.53;;;2.95;;
74495;SDS011;62979;55.720;37.606;2022-10-19T10:38:05;4.15;;;2.92;;
74495;SDS011;62979;55.720;37.606;2022-10-19T10:40:38;4.53;;;2.85;;
74495;SDS011;62979;55.720;37.606;2022-10-19T10:43:14;3.78;;;2.72;;
74495;SDS011;62979;55.720;37.606;2022-10-19T10:45:47;4.95;;;2.78;;
74495;SDS011;62979;55.720;37.606;2022-10-19T10:48:22;7.47;;;3.83;;
74495;SDS011;62979;55.720;37.606;2022-10-19T10:50:55;6.50;;;3.92;;
74495;SDS011;62979;55.720;37.606;2022-10-19T10:53:31;6.68;;;3.95;;
74495;SDS011;62979;55.720;37.606;2022-10-19T10:56:03;5.15;;;3.80;;
74495;SDS011;62979;55.720;37.606;2022-10-19T10:58:46;4.25;;;3.20;;
74495;SDS011;62979;55.720;37.606;2022-10-19T11:01:20;6.22;;;4.20;;
74495;SDS011;62979;55.720;37.606;2022-10-19T11:03:56;15.88;;;5.10;;
74495;SDS011;62979;55.720;37.606;2022-10-19T11:06:29;12.70;;;5.28;;
74495;SDS011;62979;55.720;37.606;2022-10-19T11:09:03;11.23;;;3.95;;
74495;SDS011;62979;55.720;37.606;2022-10-19T11:11:40;11.80;;;4.13;;
74495;SDS011;62979;55.720;37.606;2022-10-19T11:14:29;5.72;;;4.47;;
74495;SDS011;62979;55.720;37.606;2022-10-19T11:17:04;22.10;;;4.53;;
74495;SDS011;62979;55.720;37.606;2022-10-19T11:19:42;15.18;;;4.82;;
74495;SDS011;62979;55.720;37.606;2022-10-19T11:22:13;18.63;;;4.68;;
74495;SDS011;62979;55.720;37.606;2022-10-19T11:24:53;19.05;;;4.88;;
74495;SDS011;62979;55.720;37.606;2022-10-19T11:27:37;6.82;;;3.75;;
74495;SDS011;62979;55.720;37.606;2022-10-19T11:30:21;4.70;;;2.67;;
74495;SDS011;62979;55.720;37.606;2022-10-19T11:32:57;25.85;;;6.43;;
74495;SDS011;62979;55.720;37.606;2022-10-19T11:35:48;22.67;;;7.13;;
74495;SDS011;62979;55.720;37.606;2022-10-19T11:38:35;10.77;;;4.03;;
74495;SDS011;62979;55.720;37.606;2022-10-19T11:41:24;7.00;;;3.25;;
74495;SDS011;62979;55.720;37.606;2022-10-19T11:44:11;27.58;;;4.82;;
74495;SDS011;62979;55.720;37.606;2022-10-19T11:46:58;24.23;;;4.20;;
74495;SDS011;62979;55.720;37.606;2022-10-19T11:49:49;4.55;;;3.45;;
74495;SDS011;62979;55.720;37.606;2022-10-19T11:52:37;4.65;;;3.42;;
74495;SDS011;62979;55.720;37.606;2022-10-19T11:55:17;7.72;;;3.08;;
74495;SDS011;62979;55.720;37.606;2022-10-19T11:58:03;14.82;;;4.00;;
74495;SDS011;62979;55.720;37.606;2022-10-19T12:00:53;6.47;;;2.67;;
74495;SDS011;62979;55.720;37.606;2022-10-19T12:03:36;9.68;;;3.60;;
74495;SDS011;62979;55.720;37.606;2022-10-19T12:06:38;13.45;;;5.38;;
74495;SDS011;62979;55.720;37.606;2022-10-19T12:09:23;15.77;;;3.88;;
74495;SDS011;62979;55.720;37.606;2022-10-19T12:12:21;7.05;;;2.80;;
74495;SDS011;62979;55.720;37.606;2022-10-19T12:14:59;5.65;;;3.03;;
74495;SDS011;62979;55.720;37.606;2022-10-19T12:17:42;5.13;;;3.03;;
74495;SDS011;62979;55.720;37.606;2022-10-19T12:20:17;5.28;;;2.95;;
74495;SDS011;62979;55.720;37.606;2022-10-19T12:22:55;5.13;;;2.80;;
74495;SDS011;62979;55.720;37.606;2022-10-19T12:25:25;3.42;;;2.35;;
74495;SDS011;62979;55.720;37.606;2022-10-19T12:27:53;6.30;;;3.05;;
74495;SDS011;62979;55.720;37.606;2022-10-19T12:30:22;7.90;;;3.53;;
74495;SDS011;62979;55.720;37.606;2022-10-19T12:35:50;5.60;;;2.92;;
74495;SDS011;62979;55.720;37.606;2022-10-19T12:38:28;8.40;;;2.65;;
74495;SDS011;62979;55.720;37.606;2022-10-19T12:41:12;8.13;;;3.35;;
74495;SDS011;62979;55.720;37.606;2022-10-19T12:43:55;3.95;;;2.22;;
74495;SDS011;62979;55.720;37.606;2022-10-19T12:46:40;4.47;;;2.22;;
74495;SDS011;62979;55.720;37.606;2022-10-19T12:52:13;6.03;;;2.40;;
74495;SDS011;62979;55.720;37.606;2022-10-19T12:55:08;4.40;;;2.70;;
74495;SDS011;62979;55.720;37.606;2022-10-19T12:58:02;5.15;;;2.63;;
74495;SDS011;62979;55.720;37.606;2022-10-19T13:00:32;4.45;;;2.80;;
74495;SDS011;62979;55.720;37.606;2022-10-19T13:03:02;4.20;;;3.28;;
74495;SDS011;62979;55.720;37.606;2022-10-19T13:05:38;3.92;;;2.88;;
74495;SDS011;62979;55.720;37.606;2022-10-19T13:08:06;3.50;;;3.03;;
74495;SDS011;62979;55.720;37.606;2022-10-19T13:10:34;3.85;;;2.67;;
74495;SDS011;62979;55.720;37.606;2022-10-19T13:13:02;4.43;;;3.03;;
74495;SDS011;62979;55.720;37.606;2022-10-19T13:21:44;4.55;;;3.75;;
74495;SDS011;62979;55.720;37.606;2022-10-19T13:24:28;5.20;;;2.78;;
74495;SDS011;62979;55.720;37.606;2022-10-19T13:30:05;8.00;;;2.88;;
74495;SDS011;62979;55.720;37.606;2022-10-19T13:33:41;5.88;;;3.53;;
74495;SDS011;62979;55.720;37.606;2022-10-19T13:36:12;7.72;;;2.97;;
74495;SDS011;62979;55.720;37.606;2022-10-19T13:38:40;5.10;;;3.53;;
74495;SDS011;62979;55.720;37.606;2022-10-19T13:41:12;4.25;;;3.20;;
74495;SDS011;62979;55.720;37.606;2022-10-19T13:43:56;3.90;;;3.08;;
74495;SDS011;62979;55.720;37.606;2022-10-19T13:46:42;3.55;;;2.88;;
74495;SDS011;62979;55.720;37.606;2022-10-19T13:49:34;4.13;;;3.42;;
74495;SDS011;62979;55.720;37.606;2022-10-19T13:52:26;6.65;;;3.53;;
74495;SDS011;62979;55.720;37.606;2022-10-19T13:58:43;9.30;;;3.38;;
74495;SDS011;62979;55.720;37.606;2022-10-19T14:11:47;17.10;;;3.80;;
74495;SDS011;62979;55.720;37.606;2022-10-19T14:14:19;13.30;;;4.63;;
74495;SDS011;62979;55.720;37.606;2022-10-19T14:16:51;18.73;;;4.15;;
74495;SDS011;62979;55.720;37.606;2022-10-19T14:19:23;8.13;;;4.07;;
74495;SDS011;62979;55.720;37.606;2022-10-19T14:21:56;5.10;;;2.58;;
74495;SDS011;62979;55.720;37.606;2022-10-19T14:24:27;4.90;;;2.88;;
74495;SDS011;62979;55.720;37.606;2022-10-19T14:26:58;7.13;;;2.83;;
74495;SDS011;62979;55.720;37.606;2022-10-19T14:29:27;8.73;;;3.50;;
74495;SDS011;62979;55.720;37.606;2022-10-19T14:31:57;3.05;;;2.53;;
74495;SDS011;62979;55.720;37.606;2022-10-19T14:34:26;4.70;;;2.83;;
74495;SDS011;62979;55.720;37.606;2022-10-19T14:36:53;3.05;;;2.53;;
74495;SDS011;62979;55.720;37.606;2022-10-19T14:39:21;3.90;;;2.70;;
74495;SDS011;62979;55.720;37.606;2022-10-19T14:41:54;4.78;;;3.28;;
74495;SDS011;62979;55.720;37.606;2022-10-19T14:44:27;5.57;;;2.88;;
74495;SDS011;62979;55.720;37.606;2022-10-19T14:47:05;6.70;;;2.40;;
74495;SDS011;62979;55.720;37.606;2022-10-19T14:49:45;9.02;;;3.42;;
74495;SDS011;62979;55.720;37.606;2022-10-19T14:52:15;6.57;;;3.80;;
74495;SDS011;62979;55.720;37.606;2022-10-19T14:54:52;8.50;;;3.17;;
74495;SDS011;62979;55.720;37.606;2022-10-19T14:57:23;5.45;;;3.28;;
74495;SDS011;62979;55.720;37.606;2022-10-19T14:59:57;4.20;;;2.97;;
74495;SDS011;62979;55.720;37.606;2022-10-19T15:02:28;3.72;;;2.90;;
74495;SDS011;62979;55.720;37.606;2022-10-19T15:05:04;3.00;;;2.50;;
74495;SDS011;62979;55.720;37.606;2022-10-19T15:07:43;7.10;;;3.00;;
74495;SDS011;62979;55.720;37.606;2022-10-19T15:10:16;3.97;;;2.72;;
74495;SDS011;62979;55.720;37.606;2022-10-19T15:12:47;3.65;;;3.08;;
74495;SDS011;62979;55.720;37.606;2022-10-19T15:15:18;3.67;;;2.72;;
74495;SDS011;62979;55.720;37.606;2022-10-19T15:17:53;2.78;;;2.30;;
74495;SDS011;62979;55.720;37.606;2022-10-19T15:20:29;5.70;;;2.83;;
74495;SDS011;62979;55.720;37.606;2022-10-19T15:22:59;2.90;;;2.67;;
74495;SDS011;62979;55.720;37.606;2022-10-19T15:25:57;4.13;;;2.53;;
74495;SDS011;62979;55.720;37.606;2022-10-19T15:28:30;4.53;;;2.13;;
74495;SDS011;62979;55.720;37.606;2022-10-19T15:31:01;7.90;;;2.67;;
74495;SDS011;62979;55.720;37.606;2022-10-19T15:33:35;6.25;;;2.50;;
74495;SDS011;62979;55.720;37.606;2022-10-19T15:36:07;4.00;;;2.00;;
74495;SDS011;62979;55.720;37.606;2022-10-19T15:38:41;3.20;;;2.72;;
74495;SDS011;62979;55.720;37.606;2022-10-19T15:41:17;3.42;;;2.20;;
74495;SDS011;62979;55.720;37.606;2022-10-19T15:43:50;5.03;;;2.80;;